DAAE Airport Information

Runway Information
Runway 08 Length 7874 ft width 148 ft
Elevation 20 ft Threshold 0 ft Heading 80
Runway 26 Length 7874 ft Width 148 ft
Elevation 10 ft Threshold 0 ft Heading 260
Airport Frequencies
Type TWR Name BEJAIA TWR Frequency 118.9 MHZ
Airport Navaids
Type NDB Name Bejaia Frequency 423 KHZ
Airport Weather Information & NOTAM
ADDS - METARS form results

(2219 UTC 25 April 2018)
 
METAR text: DAAE 252200Z 23008KT 8000 FEW010 SCT040 18/17 Q1012
Conditions at: DAAE (BEJAIA/SOUMMAM , DZ) observed 2200 UTC 25 April 2018
Temperature: 18.0°C (64°F)
Dewpoint: 17.0°C (63°F) [RH = 94%]
Pressure (altimeter): 29.88 inches Hg (1012.0 mb)
Winds: from the SW (230 degrees) at 9 MPH (8 knots; 4.2 m/s)
Visibility: 5 miles (8 km)
Ceiling: at least 12,000 feet AGL
Clouds: few clouds at 1000 feet AGL
scattered clouds at 4000 feet AGL
Weather: no significant weather observed at this time